Forside
METAR-TAF:

METAR-TAF

Lufthavne :

Jeddah International Airport

Jeddah, Saudi-Arabien

Breddekreds: 21-42N, længdekreds: 039-11E, højde: 15 m

Aktuelle vejr

Denne rapport blev lavet for 47 minutter siden, kl. 02:00 UTC
Vind 2 kt fra nordnordøst
Temperatur 30°C
Fugtighed 70%
Tryk 1004 hPa
Sigt 10 km eller mere
ingen skyer under 1500m og ingen cumulonimbus

METAR: OEJN 160200Z 02002KT CAVOK 30/24 Q1004 NOSIG

Tid: 05:47 (02:47 UTC)

Vejrudsigter

Denne rapport blev lavet for 3 timer og 47 minutter siden, kl. 23:00 UTC
Foreløbig gælder fra 16 på 00 UTC til 17 på 06 UTC
Vind 3 kt fra varierende retninger
Sigt: 7000 m
ændring
fra 16 på 06 UTC til 16 på 08 UTC
Vind 10 kt fra vestsydvest

TAF: OEJN 152300Z 1600/1706 VRB03KT 7000 NSC BECMG 1606/1608 24010KT

Vejrobservationer og prognoser fra mere end 4000 lufthavne (METAR og TAF).

De gule og røde prikker repræsenterer de meteorologiske stationer.

Flyt musen over at se navnet på stationen.

Så klik over at se vejr observationer og prognoser.

At skifte det kort: Klik på de grønne knapper med et sort kors for at zoome ind; på den grønne knap med en bindestreg for at zoome ud; eller på de grønne pile for tilstødende kort.


METAR-TAF: